Time;durP1;ratioP1;P1;durP2;ratioP2;P2;SDS_P1;SDS_P2;PMS_P1;PMS_P2;Temp;Humidity;BMP_temperature;BMP_pressure;BME280_temperature;BME280_humidity;BME280_pressure;Samples;Min_cycle;Max_cycle;Signal;HPM_P1;HPM_P2
2024/02/18 00:02:00;;;;;;;8.02;2.35;;;;;;;9.72;100.00;103137.50;5090058;28;20170;-40
2024/02/18 00:04:27;;;;;;;4.78;2.05;;;;;;;9.73;100.00;103136.47;5090051;28;20036;-40
2024/02/18 00:06:52;;;;;;;6.20;2.20;;;;;;;9.80;100.00;103144.72;5081160;28;20107;-40
2024/02/18 00:09:18;;;;;;;6.40;2.10;;;;;;;9.81;100.00;103141.03;5076585;28;20416;-40
2024/02/18 00:11:43;;;;;;;7.60;2.45;;;;;;;9.80;100.00;103139.31;5076168;28;20082;-40
2024/02/18 00:14:09;;;;;;;4.45;1.83;;;;;;;9.80;100.00;103144.72;5076023;28;20098;-40
2024/02/18 00:16:34;;;;;;;7.10;2.03;;;;;;;9.77;100.00;103134.28;5076436;28;20112;-40
2024/02/18 00:18:59;;;;;;;5.57;2.27;;;;;;;9.76;100.00;103146.06;5076106;28;20259;-40
2024/02/18 00:21:27;;;;;;;7.20;2.22;;;;;;;9.70;100.00;103135.97;5076032;28;20028;-40
2024/02/18 00:23:53;;;;;;;8.23;2.50;;;;;;;9.74;100.00;103146.25;5076510;28;20028;-40
2024/02/18 00:26:18;;;;;;;7.10;2.40;;;;;;;9.71;100.00;103138.50;5076260;28;20036;-40
2024/02/18 00:28:43;;;;;;;5.03;2.10;;;;;;;9.63;100.00;103126.84;5076492;28;20142;-40
2024/02/18 00:31:09;;;;;;;7.50;2.47;;;;;;;9.61;100.00;103118.06;5075817;28;20055;-40
2024/02/18 00:33:34;;;;;;;6.73;1.93;;;;;;;9.65;100.00;103125.66;5076191;28;20028;-40
2024/02/18 00:35:59;;;;;;;5.00;2.00;;;;;;;9.64;100.00;103126.69;5075727;28;20427;-40
2024/02/18 00:38:27;;;;;;;7.57;2.40;;;;;;;9.64;100.00;103123.13;5076046;28;20032;-40
2024/02/18 00:40:53;;;;;;;6.30;2.35;;;;;;;9.61;100.00;103120.75;5075610;28;20024;-41
2024/02/18 00:43:18;;;;;;;5.32;2.13;;;;;;;9.63;100.00;103118.75;5075928;28;20112;-39
2024/02/18 00:45:43;;;;;;;7.17;2.30;;;;;;;9.58;100.00;103124.66;5075613;28;20056;-41
2024/02/18 00:48:09;;;;;;;10.23;2.70;;;;;;;9.50;100.00;103101.19;5075582;28;20060;-41
2024/02/18 00:50:34;;;;;;;8.43;2.70;;;;;;;9.58;100.00;103110.31;5075546;28;20028;-41
2024/02/18 00:52:59;;;;;;;7.33;2.40;;;;;;;9.52;100.00;103101.03;5075991;28;20060;-41
2024/02/18 00:55:25;;;;;;;5.17;2.37;;;;;;;9.56;100.00;103110.47;5075760;28;20352;-41
2024/02/18 00:57:50;;;;;;;4.25;2.20;;;;;;;9.55;100.00;103104.22;5075602;28;20017;-41
2024/02/18 01:00:16;;;;;;;4.77;2.60;;;;;;;9.57;100.00;103108.63;5075042;28;20035;-41
2024/02/18 01:02:42;;;;;;;6.28;2.60;;;;;;;9.55;100.00;103104.22;5075232;28;20440;-41
2024/02/18 01:05:08;;;;;;;6.43;2.45;;;;;;;9.56;100.00;103102.34;5074906;28;20039;-41
2024/02/18 01:07:33;;;;;;;;;;;;;;;9.60;100.00;103098.31;5075868;28;20056;-41
2024/02/18 01:09:58;;;;;;;8.03;3.20;;;;;;;9.57;100.00;103103.22;5075424;28;19914;-41
2024/02/18 01:12:24;;;;;;;7.53;2.97;;;;;;;9.56;100.00;103102.34;5075000;28;20282;-41
2024/02/18 01:14:50;;;;;;;9.57;3.22;;;;;;;9.54;100.00;103097.13;5075478;28;20472;-41
2024/02/18 01:17:15;;;;;;;7.75;3.42;;;;;;;9.55;100.00;103096.13;5074514;28;20449;-41
2024/02/18 01:19:40;;;;;;;5.80;3.17;;;;;;;9.58;100.00;103091.41;5074904;28;20036;-41
2024/02/18 01:22:06;;;;;;;10.80;4.50;;;;;;;9.58;100.00;103096.81;5075041;28;20067;-39
2024/02/18 01:24:31;;;;;;;8.33;3.87;;;;;;;9.49;100.00;103083.28;5074861;28;20290;-40
2024/02/18 01:26:56;;;;;;;8.80;3.42;;;;;;;9.53;100.00;103079.25;5074640;28;20047;-39
2024/02/18 01:29:22;;;;;;;7.32;3.45;;;;;;;9.60;100.00;103094.75;5074670;28;20032;-40
2024/02/18 01:31:48;;;;;;;8.88;3.97;;;;;;;9.60;100.00;103089.38;5074613;28;20082;-40
2024/02/18 01:34:14;;;;;;;8.05;3.65;;;;;;;9.56;100.00;103080.75;5075370;28;20085;-40
2024/02/18 01:36:39;;;;;;;7.90;3.70;;;;;;;9.57;100.00;103081.63;5074229;28;20440;-40
2024/02/18 01:39:04;;;;;;;7.90;3.97;;;;;;;9.55;100.00;103071.81;5075397;28;20025;-40
2024/02/18 01:41:30;;;;;;;7.97;3.60;;;;;;;9.58;100.00;103081.44;5074956;28;20028;-40
2024/02/18 01:43:55;;;;;;;7.47;3.93;;;;;;;9.50;100.00;103063.38;5074469;28;20032;-41
2024/02/18 01:46:21;;;;;;;7.57;3.30;;;;;;;9.49;100.00;103067.09;5074414;28;20270;-40
2024/02/18 01:48:47;;;;;;;8.38;3.97;;;;;;;9.55;100.00;103073.66;5074320;28;20350;-40
2024/02/18 01:51:13;;;;;;;5.97;3.70;;;;;;;9.58;100.00;103076.03;5074208;28;20536;-40
2024/02/18 01:53:39;;;;;;;;;;;;;;;9.65;100.00;103068.09;5074716;28;20111;-40
2024/02/18 01:56:05;;;;;;;5.93;3.00;;;;;;;9.57;100.00;103060.84;5073653;28;20024;-40
2024/02/18 01:58:32;;;;;;;6.38;3.85;;;;;;;9.57;100.00;103062.72;5073819;28;20028;-40
2024/02/18 02:00:58;;;;;;;7.50;3.47;;;;;;;9.58;100.00;103061.69;5074370;28;20040;-40
2024/02/18 02:03:23;;;;;;;8.40;3.40;;;;;;;9.59;100.00;103057.97;5073760;28;20025;-40
2024/02/18 02:05:50;;;;;;;8.90;3.25;;;;;;;9.54;100.00;103064.72;5074593;28;20085;-40
2024/02/18 02:08:17;;;;;;;7.85;3.40;;;;;;;9.54;100.00;103062.03;5074257;28;20036;-40
2024/02/18 02:10:43;;;;;;;7.65;3.40;;;;;;;9.53;100.00;103056.81;5074164;28;20021;-40
2024/02/18 02:13:08;;;;;;;8.85;3.45;;;;;;;9.62;100.00;103071.16;5074246;28;20090;-40
2024/02/18 02:15:37;;;;;;;6.37;3.00;;;;;;;9.62;100.00;103060.34;5073525;28;20036;-40
2024/02/18 02:18:02;;;;;;;5.38;3.05;;;;;;;9.61;100.00;103059.47;5074120;28;20263;-40
2024/02/18 02:20:28;;;;;;;7.57;3.08;;;;;;;9.58;100.00;103048.19;5074348;28;20078;-40
2024/02/18 02:22:53;;;;;;;6.97;3.20;;;;;;;9.64;100.00;103058.28;5073769;28;20047;-40
2024/02/18 02:25:19;;;;;;;6.70;3.03;;;;;;;9.63;100.00;103056.63;5074116;28;20294;-40
2024/02/18 02:27:49;;;;;;;8.10;2.95;;;;;;;9.65;100.00;103046.47;5074252;28;20039;-40
2024/02/18 02:30:15;;;;;;;9.20;3.22;;;;;;;9.58;100.00;103030.13;5073706;28;20074;-40
2024/02/18 02:32:42;;;;;;;4.32;2.08;;;;;;;9.64;100.00;103037.53;5073645;28;20032;-40
2024/02/18 02:35:07;;;;;;;9.68;2.80;;;;;;;9.68;100.00;103038.03;5073521;28;20060;-40
2024/02/18 02:37:33;;;;;;;5.95;2.65;;;;;;;9.69;100.00;103037.84;5073256;28;20028;-40
2024/02/18 02:39:59;;;;;;;6.68;2.78;;;;;;;9.69;100.00;103037.00;5073537;28;20020;-40
2024/02/18 02:42:24;;;;;;;6.30;2.37;;;;;;;9.62;100.00;103019.81;5073813;28;20033;-40
2024/02/18 02:44:49;;;;;;;5.43;2.15;;;;;;;9.66;100.00;103024.72;5073795;28;20475;-40
2024/02/18 02:47:15;;;;;;;6.33;2.43;;;;;;;9.72;100.00;103031.28;5073722;28;20036;-40
2024/02/18 02:49:40;;;;;;;5.23;1.93;;;;;;;9.72;100.00;103023.19;5072794;28;20750;-40
2024/02/18 02:52:06;;;;;;;4.93;1.97;;;;;;;9.67;100.00;103009.34;5073158;28;20025;-40
2024/02/18 02:54:31;;;;;;;5.60;1.85;;;;;;;9.74;100.00;103021.97;5073439;28;20106;-40
2024/02/18 02:56:56;;;;;;;4.85;2.00;;;;;;;9.76;100.00;103019.97;5073964;28;20036;-40
2024/02/18 02:59:22;;;;;;;4.70;1.80;;;;;;;9.79;100.00;103019.59;5073677;28;20417;-40
2024/02/18 03:01:47;;;;;;;3.80;1.50;;;;;;;9.80;100.00;103023.97;5073317;28;20361;-40
2024/02/18 03:04:12;;;;;;;4.33;1.40;;;;;;;9.82;100.00;103006.78;5073381;28;20265;-40
2024/02/18 03:06:38;;;;;;;4.83;1.67;;;;;;;9.84;100.00;103013.66;5073261;28;20021;-40
2024/02/18 03:09:04;;;;;;;6.32;1.70;;;;;;;9.86;100.00;103006.25;5073078;28;20473;-40
2024/02/18 03:11:29;;;;;;;5.85;1.60;;;;;;;9.86;100.00;103008.94;5073267;28;20033;-39
2024/02/18 03:13:54;;;;;;;5.35;1.80;;;;;;;9.81;100.00;102984.31;5073211;28;20116;-39
2024/02/18 03:16:20;;;;;;;3.88;1.60;;;;;;;9.92;100.00;103008.25;5073158;28;20111;-40
2024/02/18 03:18:45;;;;;;;3.25;1.30;;;;;;;9.93;100.00;102999.13;5073516;28;20112;-40
2024/02/18 03:21:11;;;;;;;8.10;1.50;;;;;;;9.89;100.00;102986.97;5073454;28;20421;-40
2024/02/18 03:23:36;;;;;;;5.78;1.85;;;;;;;9.96;100.00;102995.25;5073104;28;20025;-40
2024/02/18 03:26:01;;;;;;;5.00;1.83;;;;;;;9.96;100.00;102989.84;5072873;28;20036;-40
2024/02/18 03:28:27;;;;;;;3.83;1.52;;;;;;;9.97;100.00;102983.41;5073918;28;20032;-39
2024/02/18 03:30:53;;;;;;;5.63;1.80;;;;;;;9.87;100.00;102964.69;5073087;28;20028;-40
2024/02/18 03:33:18;;;;;;;3.88;1.63;;;;;;;9.94;100.00;102973.78;5073403;28;20027;-39
2024/02/18 03:35:44;;;;;;;5.85;1.90;;;;;;;9.95;100.00;102972.75;5072609;28;20021;-39
2024/02/18 03:38:10;;;;;;;8.02;3.13;;;;;;;9.83;100.00;102941.72;5073581;28;20028;-40
2024/02/18 03:40:35;;;;;;;3.77;1.70;;;;;;;9.90;100.00;102953.50;5072699;28;20461;-39
2024/02/18 03:43:04;;;;;;;6.07;2.10;;;;;;;9.95;100.00;102953.81;5077036;28;20147;-39
2024/02/18 03:45:30;;;;;;;5.05;2.05;;;;;;;9.94;100.00;102960.25;5076370;28;20107;-40
2024/02/18 03:47:55;;;;;;;8.52;2.47;;;;;;;9.90;100.00;102945.41;5077476;28;20115;-39
2024/02/18 03:50:21;;;;;;;6.38;2.00;;;;;;;9.97;100.00;102957.22;5077452;28;20028;-40
2024/02/18 03:52:46;;;;;;;6.87;2.07;;;;;;;9.92;100.00;102942.56;5076484;28;20192;-40
2024/02/18 03:55:12;;;;;;;6.27;2.87;;;;;;;9.88;100.00;102943.91;5076638;28;20309;-40
2024/02/18 03:57:41;;;;;;;5.07;2.15;;;;;;;9.93;100.00;102945.06;5076427;28;20533;-40
2024/02/18 04:00:11;;;;;;;8.50;2.50;;;;;;;9.88;100.00;102928.53;5076135;28;20553;-40
2024/02/18 04:02:38;;;;;;;9.10;2.65;;;;;;;9.78;100.00;102917.94;5076017;28;20085;-40
2024/02/18 04:05:07;;;;;;;9.52;2.28;;;;;;;9.81;100.00;102927.56;5076351;28;20033;-40
2024/02/18 04:07:33;;;;;;;6.43;2.38;;;;;;;9.80;100.00;102929.41;5076196;28;20055;-40
2024/02/18 04:09:59;;;;;;;7.13;2.33;;;;;;;9.76;100.00;102916.41;5076246;28;20099;-40
2024/02/18 04:12:24;;;;;;;7.30;2.30;;;;;;;9.75;100.00;102909.34;5076246;28;20094;-40
2024/02/18 04:14:50;;;;;;;7.77;2.73;;;;;;;9.70;100.00;102906.31;5075815;28;20078;-40
2024/02/18 04:17:15;;;;;;;7.07;2.10;;;;;;;9.68;100.00;102911.91;5076064;28;20028;-40
2024/02/18 04:19:41;;;;;;;8.50;2.50;;;;;;;9.63;100.00;102900.78;5076452;28;20137;-40
2024/02/18 04:22:06;;;;;;;8.30;2.40;;;;;;;9.61;100.00;102899.25;5076382;28;20052;-40
2024/02/18 04:24:32;;;;;;;6.10;1.90;;;;;;;9.52;100.00;102885.81;5076286;28;20277;-40
2024/02/18 04:26:57;;;;;;;7.78;2.40;;;;;;;9.55;100.00;102901.63;5076156;28;20029;-40
2024/02/18 04:29:22;;;;;;;9.07;2.70;;;;;;;9.52;100.00;102893.91;5076542;28;20024;-40
2024/02/18 04:31:48;;;;;;;4.97;1.83;;;;;;;9.52;100.00;102893.91;5075808;28;20028;-40
2024/02/18 04:34:13;;;;;;;6.73;2.47;;;;;;;9.47;100.00;102880.06;5076205;28;20107;-40
2024/02/18 04:36:38;;;;;;;6.13;1.93;;;;;;;9.36;100.00;102864.22;5076153;28;20095;-40
2024/02/18 04:39:05;;;;;;;5.63;2.23;;;;;;;9.36;100.00;102861.53;5075973;28;20251;-40
2024/02/18 04:41:31;;;;;;;5.93;2.22;;;;;;;9.44;100.00;102876.88;5076035;28;20349;-40
2024/02/18 04:43:56;;;;;;;8.18;2.60;;;;;;;9.41;100.00;102869.13;5076083;28;20078;-40
2024/02/18 04:46:22;;;;;;;7.20;2.67;;;;;;;9.38;100.00;102864.91;5075499;28;20028;-40
2024/02/18 04:48:47;;;;;;;7.57;2.30;;;;;;;9.35;100.00;102859.00;5075601;28;20107;-40
2024/02/18 04:51:12;;;;;;;5.73;2.07;;;;;;;9.34;100.00;102860.03;5075462;28;20058;-40
2024/02/18 04:53:38;;;;;;;3.80;1.83;;;;;;;9.30;100.00;102859.53;5075654;28;20361;-40
2024/02/18 04:56:03;;;;;;;5.60;1.97;;;;;;;9.32;100.00;102860.22;5076198;28;20399;-40
2024/02/18 04:58:29;;;;;;;7.03;2.25;;;;;;;9.32;100.00;102853.94;5075304;28;20437;-40
2024/02/18 05:00:54;;;;;;;6.80;2.83;;;;;;;9.24;100.00;102838.63;5075540;28;20028;-40
2024/02/18 05:03:21;;;;;;;4.47;1.90;;;;;;;9.24;100.00;102844.88;5075644;28;20369;-40
2024/02/18 05:05:46;;;;;;;7.03;2.22;;;;;;;9.21;100.00;102842.50;5075958;28;20028;-40
2024/02/18 05:08:11;;;;;;;5.60;2.72;;;;;;;9.20;100.00;102838.13;5075138;28;20025;-40
2024/02/18 05:10:37;;;;;;;7.03;2.60;;;;;;;9.18;100.00;102828.53;5075126;28;20465;-40
2024/02/18 05:13:03;;;;;;;9.95;2.28;;;;;;;9.16;100.00;102827.84;5075882;28;20360;-40
2024/02/18 05:15:28;;;;;;;6.20;2.30;;;;;;;9.09;100.00;102813.38;5074647;28;20028;-40
2024/02/18 05:17:53;;;;;;;6.17;1.80;;;;;;;9.15;100.00;102818.91;5075352;28;20024;-40
2024/02/18 05:20:19;;;;;;;6.67;2.40;;;;;;;9.12;100.00;102810.31;5074963;28;20050;-40
2024/02/18 05:22:44;;;;;;;7.80;2.50;;;;;;;8.98;100.00;102788.44;5074530;28;20024;-40
2024/02/18 05:25:09;;;;;;;8.13;2.03;;;;;;;9.12;100.00;102810.31;5074929;28;20040;-40
2024/02/18 05:27:35;;;;;;;7.85;2.47;;;;;;;9.10;100.00;102806.97;5074796;28;20033;-40
2024/02/18 05:30:00;;;;;;;7.50;2.17;;;;;;;9.07;100.00;102801.91;5074785;28;20029;-40
2024/02/18 05:32:25;;;;;;;7.17;2.60;;;;;;;9.07;100.00;102796.50;5075030;28;20021;-40
2024/02/18 05:34:51;;;;;;;9.63;2.20;;;;;;;9.08;100.00;102800.88;5074926;28;20306;-40
2024/02/18 05:37:16;;;;;;;5.30;2.30;;;;;;;9.03;100.00;102801.44;5074540;28;20090;-40
2024/02/18 05:39:42;;;;;;;5.97;1.98;;;;;;;9.05;100.00;102787.75;5075333;28;20342;-40
2024/02/18 05:42:07;;;;;;;4.95;2.03;;;;;;;8.93;100.00;102777.34;5074231;28;20074;-40
2024/02/18 05:44:33;;;;;;;7.18;2.78;;;;;;;8.91;100.00;102775.81;5074532;28;20028;-40
2024/02/18 05:46:58;;;;;;;9.20;3.03;;;;;;;8.96;100.00;102790.47;5074889;28;20029;-40
2024/02/18 05:49:24;;;;;;;6.28;1.95;;;;;;;8.98;100.00;102779.53;5074383;28;20024;-40
2024/02/18 05:51:53;;;;;;;7.85;2.50;;;;;;;8.96;100.00;102776.13;5074541;28;20031;-40
2024/02/18 05:54:20;;;;;;;7.03;2.20;;;;;;;8.92;100.00;102775.63;5074299;28;20483;-40
2024/02/18 05:56:46;;;;;;;6.00;2.10;;;;;;;8.93;100.00;102771.94;5075026;28;20111;-40
2024/02/18 05:59:11;;;;;;;;;;;;;;;8.98;100.00;102772.25;5074864;28;20035;-40
2024/02/18 06:01:37;;;;;;;5.87;2.20;;;;;;;8.92;100.00;102772.94;5073136;28;20415;-40
2024/02/18 06:04:02;;;;;;;5.50;2.20;;;;;;;8.90;100.00;102761.47;5074148;28;20814;-40
2024/02/18 06:06:27;;;;;;;5.57;2.05;;;;;;;8.90;100.00;102760.66;5073924;28;20111;-40
2024/02/18 06:08:53;;;;;;;7.77;1.90;;;;;;;8.82;100.00;102739.91;5074019;28;20073;-39
2024/02/18 06:11:18;;;;;;;7.03;2.03;;;;;;;8.88;100.00;102749.16;5073979;28;20028;-39
2024/02/18 06:13:44;;;;;;;10.80;2.47;;;;;;;8.85;100.00;102739.56;5073902;28;20033;-39
2024/02/18 06:16:09;;;;;;;5.05;1.98;;;;;;;8.78;100.00;102733.16;5074260;28;20024;-40
2024/02/18 06:18:34;;;;;;;6.97;1.93;;;;;;;8.82;100.00;102734.50;5073614;28;20032;-39
2024/02/18 06:21:00;;;;;;;4.93;1.70;;;;;;;8.82;100.00;102733.69;5072541;28;20348;-39
2024/02/18 06:23:25;;;;;;;5.83;1.80;;;;;;;8.79;100.00;102726.78;5074628;28;20058;-39
2024/02/18 06:25:51;;;;;;;8.07;2.50;;;;;;;8.77;100.00;102729.63;5073747;28;20277;-39
2024/02/18 06:28:17;;;;;;;5.55;2.38;;;;;;;8.79;100.00;102726.78;5073699;28;20473;-40
2024/02/18 06:30:42;;;;;;;6.10;2.33;;;;;;;8.79;100.00;102710.59;5073703;28;20394;-40
2024/02/18 06:33:08;;;;;;;3.88;1.45;;;;;;;8.78;100.00;102711.59;5073359;28;20028;-40
2024/02/18 06:35:33;;;;;;;7.43;2.07;;;;;;;8.77;100.00;102704.53;5073573;28;20033;-40
2024/02/18 06:37:59;;;;;;;5.47;2.20;;;;;;;8.76;100.00;102710.94;5073809;28;20263;-40
2024/02/18 06:40:25;;;;;;;5.83;1.97;;;;;;;8.72;100.00;102698.81;5073903;28;20024;-40
2024/02/18 06:42:50;;;;;;;5.82;1.90;;;;;;;8.71;100.00;102702.53;5073792;28;20396;-40
2024/02/18 06:45:16;;;;;;;6.05;1.90;;;;;;;8.74;100.00;102699.50;5073536;28;20039;-40
2024/02/18 06:47:41;;;;;;;6.03;1.73;;;;;;;8.74;100.00;102705.72;5074284;28;20035;-40
2024/02/18 06:50:08;;;;;;;5.50;1.70;;;;;;;8.73;100.00;102692.41;5073778;28;20033;-40
2024/02/18 06:52:33;;;;;;;6.07;1.88;;;;;;;8.68;100.00;102678.59;5073871;28;20334;-40
2024/02/18 06:54:59;;;;;;;7.35;2.15;;;;;;;8.64;100.00;102678.13;5074002;28;20048;-40
2024/02/18 06:57:24;;;;;;;6.22;2.13;;;;;;;8.73;100.00;102681.59;5073974;28;20111;-40
2024/02/18 06:59:50;;;;;;;7.38;2.25;;;;;;;8.64;100.00;102670.03;5073914;28;20423;-40
2024/02/18 07:02:15;;;;;;;7.43;2.35;;;;;;;8.71;100.00;102668.31;5073910;28;20444;-40
2024/02/18 07:04:40;;;;;;;6.70;2.17;;;;;;;8.64;100.00;102669.19;5073326;28;20032;-40
2024/02/18 07:07:06;;;;;;;7.53;2.30;;;;;;;8.72;100.00;102677.22;5073819;28;20385;-40
2024/02/18 07:09:31;;;;;;;4.37;1.53;;;;;;;8.70;100.00;102668.50;5073317;28;20025;-40
2024/02/18 07:11:56;;;;;;;5.07;1.80;;;;;;;8.69;100.00;102674.91;5073290;28;20387;-40
2024/02/18 07:14:22;;;;;;;7.20;2.03;;;;;;;8.70;100.00;102666.63;5073719;28;20571;-40
2024/02/18 07:16:47;;;;;;;6.73;2.27;;;;;;;8.62;100.00;102647.75;5074801;28;20032;-40
2024/02/18 07:19:12;;;;;;;5.83;1.87;;;;;;;8.67;100.00;102658.03;5077657;28;20107;-40
2024/02/18 07:21:38;;;;;;;7.17;2.20;;;;;;;8.67;100.00;102671.53;5077501;28;20466;-43
2024/02/18 07:24:06;;;;;;;7.03;2.08;;;;;;;8.66;100.00;102667.97;5078008;28;20438;-40
2024/02/18 07:26:31;;;;;;;6.00;1.90;;;;;;;8.62;100.00;102655.84;5077084;28;20024;-40
2024/02/18 07:28:57;;;;;;;6.68;1.90;;;;;;;8.57;100.00;102641.22;5076777;28;20032;-40
2024/02/18 07:31:22;;;;;;;4.57;1.67;;;;;;;8.54;100.00;102638.84;5077501;28;20029;-40
2024/02/18 07:33:47;;;;;;;6.30;2.13;;;;;;;8.61;100.00;102651.47;5077582;28;20021;-40
2024/02/18 07:36:13;;;;;;;5.73;2.30;;;;;;;8.41;100.00;102626.78;5076523;28;20107;-40
2024/02/18 07:38:38;;;;;;;7.60;2.20;;;;;;;8.52;100.00;102647.13;5076542;28;20090;-40
2024/02/18 07:41:04;;;;;;;9.23;2.77;;;;;;;8.49;100.00;102634.84;5076782;28;20032;-40
2024/02/18 07:43:31;;;;;;;7.75;2.45;;;;;;;8.49;100.00;102640.25;5077023;28;20027;-40
2024/02/18 07:45:56;;;;;;;6.65;2.08;;;;;;;8.45;100.00;102636.22;5076690;28;20393;-40
2024/02/18 07:48:22;;;;;;;5.43;2.10;;;;;;;8.40;100.00;102630.50;5076622;28;20041;-40
2024/02/18 07:50:47;;;;;;;8.65;2.45;;;;;;;8.42;100.00;102617.66;5076590;28;20111;-40
2024/02/18 07:53:12;;;;;;;5.57;2.43;;;;;;;8.44;100.00;102620.19;5077422;28;20035;-40
2024/02/18 07:55:38;;;;;;;6.93;2.50;;;;;;;8.44;100.00;102633.66;5076658;28;20044;-39
2024/02/18 07:58:03;;;;;;;8.20;2.30;;;;;;;8.40;100.00;102618.88;5076362;28;20365;-40
2024/02/18 08:00:28;;;;;;;9.20;2.90;;;;;;;8.41;100.00;102618.69;5076464;28;20377;-40
2024/02/18 08:02:54;;;;;;;8.87;2.33;;;;;;;8.37;100.00;102616.50;5076447;28;20032;-40
2024/02/18 08:05:19;;;;;;;8.17;2.67;;;;;;;8.36;100.00;102602.19;5076315;28;20282;-39
2024/02/18 08:07:45;;;;;;;5.10;2.10;;;;;;;8.31;100.00;102599.16;5076685;28;20275;-39
2024/02/18 08:10:10;;;;;;;7.40;2.50;;;;;;;8.22;100.00;102589.41;5076501;28;20099;-40
2024/02/18 08:12:36;;;;;;;6.43;2.50;;;;;;;8.25;100.00;102597.16;5075967;28;20395;-40
2024/02/18 08:15:02;;;;;;;8.15;2.65;;;;;;;8.24;100.00;102590.06;5076671;28;20020;-40
2024/02/18 08:17:27;;;;;;;6.88;2.83;;;;;;;8.19;100.00;102579.78;5076119;28;20025;-40
2024/02/18 08:19:52;;;;;;;9.27;2.93;;;;;;;8.26;100.00;102590.75;5076711;28;20036;-39
2024/02/18 08:22:18;;;;;;;9.77;2.77;;;;;;;8.22;100.00;102584.84;5076070;28;20453;-40
2024/02/18 08:24:43;;;;;;;9.05;2.22;;;;;;;8.28;100.00;102596.78;5076371;28;20086;-40
2024/02/18 08:27:09;;;;;;;9.80;2.80;;;;;;;8.24;100.00;102598.16;5075212;28;20039;-40
2024/02/18 08:29:34;;;;;;;6.20;2.50;;;;;;;8.17;100.00;102578.31;5075743;28;20021;-40
2024/02/18 08:32:02;;;;;;;4.95;2.53;;;;;;;8.21;100.00;102595.81;5075894;28;20032;-40
2024/02/18 08:34:30;;;;;;;8.45;2.83;;;;;;;8.09;100.00;102570.22;5076646;28;20115;-40
2024/02/18 08:36:56;;;;;;;5.95;2.40;;;;;;;8.18;100.00;102580.81;5075832;28;20107;-41
2024/02/18 08:39:22;;;;;;;7.70;2.45;;;;;;;8.15;100.00;102591.09;5076056;28;20070;-38
2024/02/18 08:41:47;;;;;;;10.38;2.88;;;;;;;8.14;100.00;102576.78;5075707;28;20036;-39
2024/02/18 08:44:14;;;;;;;7.13;2.25;;;;;;;8.12;100.00;102567.22;5075428;28;20020;-41
2024/02/18 08:46:40;;;;;;;6.97;2.63;;;;;;;8.15;100.00;102564.16;5076128;28;20036;-41
2024/02/18 08:49:05;;;;;;;8.05;2.63;;;;;;;8.11;100.00;102560.97;5076481;28;20020;-40
2024/02/18 08:51:31;;;;;;;8.23;3.07;;;;;;;8.09;100.00;102564.84;5075571;28;20468;-40
2024/02/18 08:53:56;;;;;;;7.73;2.70;;;;;;;8.10;100.00;102561.13;5075829;28;20410;-40
2024/02/18 08:56:21;;;;;;;10.60;3.20;;;;;;;8.06;100.00;102559.81;5075366;28;20032;-40
2024/02/18 08:58:47;;;;;;;6.78;2.42;;;;;;;8.02;100.00;102550.41;5075644;28;20028;-40
2024/02/18 09:01:12;;;;;;;9.23;2.93;;;;;;;8.03;100.00;102549.38;5075596;28;20478;-39
2024/02/18 09:03:37;;;;;;;6.33;2.77;;;;;;;7.99;100.00;102541.63;5075028;28;20354;-39
2024/02/18 09:06:03;;;;;;;10.67;3.00;;;;;;;8.07;100.00;102559.63;5075557;28;20062;-39
2024/02/18 09:08:28;;;;;;;6.05;2.75;;;;;;;8.08;100.00;102550.53;5075481;28;20031;-39
2024/02/18 09:10:54;;;;;;;7.75;2.40;;;;;;;8.07;100.00;102535.38;5074833;28;20037;-39
2024/02/18 09:13:20;;;;;;;10.00;3.15;;;;;;;8.03;100.00;102533.22;5075670;28;20525;-39
2024/02/18 09:15:47;;;;;;;6.40;2.72;;;;;;;7.98;100.00;102523.78;5075231;28;20024;-39
2024/02/18 09:18:12;;;;;;;6.07;2.50;;;;;;;8.03;100.00;102525.97;5075307;28;20090;-39
2024/02/18 09:20:37;;;;;;;6.00;2.27;;;;;;;7.99;100.00;102509.28;5074971;28;20070;-39
2024/02/18 09:23:03;;;;;;;5.13;2.33;;;;;;;8.05;100.00;102515.84;5075267;28;20271;-40
2024/02/18 09:25:28;;;;;;;10.85;2.45;;;;;;;8.05;100.00;102507.75;5074920;28;20037;-39
2024/02/18 09:28:47;;;;;;;7.90;2.83;;;;;;;8.02;100.00;102513.50;5075441;28;20032;-39
2024/02/18 09:31:13;;;;;;;7.47;2.40;;;;;;;8.04;100.00;102510.63;5074106;28;20029;-40
2024/02/18 09:33:41;;;;;;;5.28;2.20;;;;;;;7.98;100.00;102496.84;5075133;28;20406;-39
2024/02/18 09:36:07;;;;;;;7.43;2.63;;;;;;;7.96;100.00;102490.81;5074880;28;20131;-40
2024/02/18 09:38:32;;;;;;;7.05;2.15;;;;;;;7.97;100.00;102505.13;5074557;28;20534;-39
2024/02/18 09:40:57;;;;;;;7.93;2.67;;;;;;;7.97;100.00;102492.47;5074608;28;20025;-39
2024/02/18 09:43:24;;;;;;;5.30;2.50;;;;;;;8.03;100.00;102485.56;5074819;28;20082;-40
2024/02/18 09:45:52;;;;;;;4.32;2.10;;;;;;;8.04;100.00;102486.38;5074175;28;20032;-39
2024/02/18 09:48:20;;;;;;;5.80;2.08;;;;;;;7.99;100.00;102489.59;5074343;28;20488;-39
2024/02/18 09:50:48;;;;;;;9.93;2.33;;;;;;;8.02;100.00;102474.97;5074027;28;20036;-39
2024/02/18 09:53:15;;;;;;;7.28;2.08;;;;;;;8.03;100.00;102479.31;5074094;28;20060;-39
2024/02/18 09:55:43;;;;;;;4.82;2.00;;;;;;;8.05;100.00;102472.72;5074033;28;20482;-39
2024/02/18 09:58:09;;;;;;;9.20;2.85;;;;;;;8.07;100.00;102459.94;5073883;28;20020;-39
2024/02/18 10:00:36;;;;;;;3.88;2.00;;;;;;;8.00;100.00;102449.03;5074129;28;20082;-39
2024/02/18 10:03:03;;;;;;;6.32;2.40;;;;;;;8.11;100.00;102455.06;5073926;28;20069;-39
2024/02/18 10:05:30;;;;;;;5.43;1.95;;;;;;;8.13;100.00;102447.63;5073993;28;20039;-39
2024/02/18 10:08:03;;;;;;;6.95;2.85;;;;;;;8.13;100.00;102448.47;5074602;28;20025;-39
2024/02/18 10:10:35;;;;;;;5.22;1.77;;;;;;;8.09;100.00;102428.25;5073957;28;20082;-39
2024/02/18 10:13:03;;;;;;;4.93;2.17;;;;;;;8.12;100.00;102435.16;5073892;28;20067;-39
2024/02/18 10:15:28;;;;;;;7.30;2.38;;;;;;;8.18;100.00;102429.06;5074665;28;20028;-40
2024/02/18 10:17:53;;;;;;;6.50;1.95;;;;;;;8.15;100.00;102418.63;5073569;28;20029;-40
2024/02/18 10:20:19;;;;;;;4.67;1.80;;;;;;;8.26;100.00;102429.88;5073670;28;20036;-40
2024/02/18 10:22:44;;;;;;;4.83;1.93;;;;;;;8.19;100.00;102414.56;5073845;28;20277;-40
2024/02/18 10:25:10;;;;;;;4.03;1.83;;;;;;;8.17;100.00;102422.84;5074440;28;20368;-40
2024/02/18 10:27:37;;;;;;;4.00;1.85;;;;;;;8.20;100.00;102416.28;5074002;28;20343;-40
2024/02/18 10:30:03;;;;;;;7.72;2.88;;;;;;;8.17;100.00;102406.69;5074012;28;20028;-40
2024/02/18 10:32:30;;;;;;;2.97;1.48;;;;;;;8.21;100.00;102418.78;5073755;28;20491;-39
2024/02/18 10:34:55;;;;;;;6.07;2.55;;;;;;;8.16;100.00;102401.47;5074092;28;20401;-39
2024/02/18 10:37:35;;;;;;;5.53;1.80;;;;;;;8.22;100.00;102409.69;5073606;28;20078;-39
2024/02/18 10:40:07;;;;;;;3.58;1.80;;;;;;;8.20;100.00;102400.94;5073844;28;20064;-39
2024/02/18 10:42:37;;;;;;;3.80;1.60;;;;;;;8.21;100.00;102397.22;5074144;28;20032;-39
2024/02/18 10:45:05;;;;;;;5.63;1.65;;;;;;;8.23;100.00;102403.25;5073564;28;20040;-39
2024/02/18 10:47:32;;;;;;;5.03;1.95;;;;;;;8.27;100.00;102395.66;5073485;28;20028;-39
2024/02/18 10:50:04;;;;;;;5.25;1.88;;;;;;;8.30;100.00;102387.25;5073371;28;20120;-39
2024/02/18 10:52:36;;;;;;;5.00;1.95;;;;;;;8.32;100.00;102366.31;5073493;28;20107;-39
2024/02/18 10:55:06;;;;;;;5.18;1.58;;;;;;;8.33;100.00;102365.31;5073710;28;20113;-39
2024/02/18 10:57:45;;;;;;;3.22;1.30;;;;;;;8.32;100.00;102373.56;5073700;28;20028;-39
2024/02/18 11:00:12;;;;;;;2.97;1.63;;;;;;;8.31;100.00;102361.13;5074185;28;20395;-40
2024/02/18 11:03:13;;;;;;;8.90;2.30;;;;;;;8.30;100.00;102348.69;5073519;28;20060;-39
2024/02/18 11:05:39;;;;;;;5.78;1.88;;;;;;;8.27;100.00;102345.31;5073582;28;20527;-39
2024/02/18 11:08:09;;;;;;;4.68;1.83;;;;;;;8.30;100.00;102336.03;5073343;28;20384;-40
2024/02/18 11:10:35;;;;;;;5.28;2.00;;;;;;;8.23;100.00;102321.59;5073030;28;20031;-40
2024/02/18 11:13:03;;;;;;;3.60;1.42;;;;;;;8.30;100.00;102330.66;5073279;28;20028;-40
2024/02/18 11:15:28;;;;;;;4.32;1.70;;;;;;;8.30;100.00;102319.03;5073477;28;20418;-40
2024/02/18 11:17:55;;;;;;;4.97;1.67;;;;;;;8.30;100.00;102314.47;5073280;28;20028;-40
2024/02/18 11:20:22;;;;;;;5.97;1.75;;;;;;;8.35;100.00;102312.06;5072952;28;20116;-40
2024/02/18 11:22:50;;;;;;;5.53;1.70;;;;;;;8.34;100.00;102299.59;5073093;28;20545;-40